Time;durP1;ratioP1;P1;durP2;ratioP2;P2;SDS_P1;SDS_P2;PMS_P1;PMS_P2;Temp;Humidity;BMP_temperature;BMP_pressure;BME280_temperature;BME280_humidity;BME280_pressure;Samples;Min_cycle;Max_cycle;Signal;HPM_P1;HPM_P2
2023/10/24 00:00:19;;;;;;;35.30;17.98;;;14.70;99.90;;;;;;5073125;28;20489;-79
2023/10/24 00:02:45;;;;;;;35.00;17.70;;;14.70;99.90;;;;;;5073464;28;20028;-79
2023/10/24 00:05:10;;;;;;;32.45;17.08;;;14.70;99.90;;;;;;5073155;28;20032;-79
2023/10/24 00:07:36;;;;;;;32.10;15.98;;;14.70;99.90;;;;;;5073132;28;20525;-79
2023/10/24 00:10:03;;;;;;;31.13;15.75;;;14.70;99.90;;;;;;5073247;28;20028;-79
2023/10/24 00:12:29;;;;;;;38.85;15.40;;;14.60;99.90;;;;;;5072463;28;20467;-79
2023/10/24 00:14:56;;;;;;;31.92;16.95;;;14.60;99.90;;;;;;5072711;28;20028;-79
2023/10/24 00:17:23;;;;;;;31.17;16.05;;;14.60;99.90;;;;;;5073045;28;20073;-79
2023/10/24 00:19:49;;;;;;;27.00;14.82;;;14.60;99.90;;;;;;5072250;28;20067;-79
2023/10/24 00:22:15;;;;;;;28.13;14.18;;;14.60;99.90;;;;;;5072893;28;20063;-79
2023/10/24 00:24:40;;;;;;;35.10;15.40;;;14.60;99.90;;;;;;5072909;28;20028;-79
2023/10/24 00:27:06;;;;;;;34.22;19.15;;;14.50;99.90;;;;;;5071746;28;20807;-79
2023/10/24 00:29:32;;;;;;;24.08;13.18;;;14.50;99.90;;;;;;5072734;28;20463;-80
2023/10/24 00:31:58;;;;;;;24.58;13.90;;;14.50;99.90;;;;;;5072311;28;20100;-79
2023/10/24 00:34:23;;;;;;;27.00;14.43;;;14.50;99.90;;;;;;5075060;28;20356;-78
2023/10/24 00:36:49;;;;;;;23.98;14.02;;;14.40;99.90;;;;;;5074940;28;20036;-80
2023/10/24 00:39:15;;;;;;;29.40;14.48;;;14.40;99.90;;;;;;5074834;28;20436;-79
2023/10/24 00:41:41;;;;;;;31.20;15.20;;;14.40;99.90;;;;;;5074537;28;20047;-78
2023/10/24 00:44:07;;;;;;;35.33;17.15;;;14.40;99.90;;;;;;5076442;28;20025;-80
2023/10/24 00:46:35;;;;;;;65.47;30.05;;;14.40;99.90;;;;;;5075203;28;20128;-79
2023/10/24 00:49:03;;;;;;;57.10;25.80;;;14.30;99.90;;;;;;5076418;28;20441;-80
2023/10/24 00:51:29;;;;;;;47.65;23.33;;;14.30;99.90;;;;;;5076857;28;20020;-79
2023/10/24 00:53:56;;;;;;;39.30;18.55;;;14.30;99.90;;;;;;5076317;28;20029;-79
2023/10/24 00:56:22;;;;;;;34.70;17.08;;;14.30;99.90;;;;;;5075924;28;20028;-79
2023/10/24 00:58:50;;;;;;;34.42;16.90;;;14.30;99.90;;;;;;5076181;28;20028;-79
2023/10/24 01:01:18;;;;;;;43.67;15.38;;;14.20;99.90;;;;;;5076414;28;20051;-79
2023/10/24 01:03:46;;;;;;;31.95;14.73;;;14.20;99.90;;;;;;5075436;28;20472;-80
2023/10/24 01:06:12;;;;;;;28.27;13.85;;;14.20;99.90;;;;;;5075020;28;20449;-80
2023/10/24 01:08:38;;;;;;;34.63;15.73;;;14.20;99.90;;;;;;5074968;28;20531;-80
2023/10/24 01:11:05;;;;;;;25.13;14.60;;;14.10;99.90;;;;;;5076015;28;20020;-80
2023/10/24 01:13:31;;;;;;;27.13;14.52;;;14.10;99.90;;;;;;5074532;28;20123;-80
2023/10/24 01:15:57;;;;;;;31.88;16.00;;;14.10;99.90;;;;;;5074005;28;20024;-79
2023/10/24 01:18:23;;;;;;;31.70;15.07;;;14.10;99.90;;;;;;5074407;28;20021;-81
2023/10/24 01:20:48;;;;;;;30.25;15.82;;;14.10;99.90;;;;;;5075592;28;20024;-80
2023/10/24 01:23:14;;;;;;;28.60;14.95;;;14.10;99.90;;;;;;5074893;28;20033;-80
2023/10/24 01:25:41;;;;;;;27.48;15.07;;;14.10;99.90;;;;;;5075389;28;20375;-80
2023/10/24 01:28:08;;;;;;;30.80;16.23;;;14.20;99.90;;;;;;5075299;28;20048;-80
2023/10/24 01:30:39;;;;;;;35.22;16.75;;;14.00;99.90;;;;;;5075318;28;20103;-81
2023/10/24 01:33:04;;;;;;;31.10;15.88;;;14.10;99.90;;;;;;5075042;28;20035;-81
2023/10/24 01:35:30;;;;;;;33.22;16.27;;;14.20;99.90;;;;;;5075201;28;20021;-80
2023/10/24 01:37:56;;;;;;;33.35;16.45;;;14.20;99.90;;;;;;5074134;28;20035;-81
2023/10/24 01:40:22;;;;;;;31.45;17.92;;;14.20;99.90;;;;;;5074379;28;20125;-81
2023/10/24 01:42:48;;;;;;;30.73;16.17;;;14.20;99.90;;;;;;5073708;28;20352;-81
2023/10/24 01:45:17;;;;;;;32.53;15.48;;;14.10;99.90;;;;;;5075225;28;20056;-80
2023/10/24 01:47:43;;;;;;;34.55;15.82;;;14.10;99.90;;;;;;5074126;28;20048;-81
2023/10/24 01:50:09;;;;;;;32.80;15.07;;;14.20;99.90;;;;;;5075100;28;20368;-80
2023/10/24 01:52:35;;;;;;;29.95;15.93;;;14.20;99.90;;;;;;5073954;28;20028;-80
2023/10/24 01:55:01;;;;;;;34.30;16.90;;;14.20;99.90;;;;;;5074194;28;20115;-80
2023/10/24 01:57:27;;;;;;;25.27;14.80;;;14.10;99.90;;;;;;5075412;28;20040;-80
2023/10/24 01:59:53;;;;;;;33.80;16.02;;;14.10;99.90;;;;;;5075130;28;20051;-81
2023/10/24 02:02:19;;;;;;;29.55;15.05;;;14.10;99.90;;;;;;5073699;28;20111;-81
2023/10/24 02:04:44;;;;;;;35.70;16.77;;;14.10;99.90;;;;;;5075282;28;20036;-81
2023/10/24 02:07:10;;;;;;;34.10;16.30;;;14.10;99.90;;;;;;5074973;28;20123;-80
2023/10/24 02:09:36;;;;;;;30.10;16.17;;;14.10;99.90;;;;;;5075235;28;20021;-81
2023/10/24 02:12:02;;;;;;;28.77;15.63;;;14.10;99.90;;;;;;5074452;28;20033;-80
2023/10/24 02:14:29;;;;;;;32.15;15.98;;;14.10;99.90;;;;;;5075439;28;20141;-80
2023/10/24 02:16:55;;;;;;;29.58;14.90;;;14.10;99.90;;;;;;5074169;28;20024;-81
2023/10/24 02:19:21;;;;;;;36.97;15.20;;;14.10;99.90;;;;;;5074141;28;20032;-79
2023/10/24 02:21:49;;;;;;;27.40;14.80;;;14.10;99.90;;;;;;5074057;28;20487;-81
2023/10/24 02:24:15;;;;;;;31.45;14.70;;;14.10;99.90;;;;;;5073148;28;20086;-79
2023/10/24 02:26:41;;;;;;;29.77;15.00;;;14.00;99.90;;;;;;5073619;28;20078;-79
2023/10/24 02:29:07;;;;;;;27.77;15.98;;;14.00;99.90;;;;;;5074414;28;20485;-79
2023/10/24 02:31:33;;;;;;;34.78;16.02;;;14.00;99.90;;;;;;5072778;28;20028;-79
2023/10/24 02:33:58;;;;;;;26.65;14.65;;;13.90;99.90;;;;;;5074281;28;20433;-79
2023/10/24 02:36:24;;;;;;;30.92;15.30;;;13.90;99.90;;;;;;5074377;28;20033;-78
2023/10/24 02:38:50;;;;;;;33.13;14.50;;;13.90;99.90;;;;;;5073768;28;20024;-78
2023/10/24 02:41:15;;;;;;;36.20;15.30;;;13.80;99.90;;;;;;5073587;28;20024;-79
2023/10/24 02:43:41;;;;;;;35.10;14.52;;;13.80;99.90;;;;;;5072770;28;20074;-78
2023/10/24 02:46:07;;;;;;;28.88;14.00;;;13.70;99.90;;;;;;5073607;28;20170;-79
2023/10/24 02:48:33;;;;;;;29.88;14.57;;;13.70;99.90;;;;;;5073841;28;20028;-79
2023/10/24 02:51:00;;;;;;;29.70;14.88;;;13.70;99.90;;;;;;5073975;28;20028;-78
2023/10/24 02:53:26;;;;;;;25.50;15.23;;;13.70;99.90;;;;;;5073882;28;20020;-78
2023/10/24 02:55:52;;;;;;;35.40;16.33;;;13.70;99.90;;;;;;5071660;28;20020;-78
2023/10/24 02:58:18;;;;;;;39.83;19.30;;;13.60;99.90;;;;;;5073741;28;20033;-78
2023/10/24 03:00:45;;;;;;;40.00;18.48;;;13.60;99.90;;;;;;5073680;28;20028;-78
2023/10/24 03:03:13;;;;;;;30.77;15.25;;;13.60;99.90;;;;;;5072351;28;20471;-78
2023/10/24 03:05:39;;;;;;;33.90;17.33;;;13.50;99.90;;;;;;5072357;28;20098;-79
2023/10/24 03:08:05;;;;;;;29.05;13.98;;;13.40;99.90;;;;;;5072812;28;20036;-79
2023/10/24 03:10:31;;;;;;;31.23;14.35;;;13.40;99.90;;;;;;5072164;28;20471;-78
2023/10/24 03:12:57;;;;;;;30.95;13.82;;;13.40;99.90;;;;;;5073262;28;20487;-78
2023/10/24 03:15:23;;;;;;;30.33;14.85;;;13.40;99.90;;;;;;5073483;28;20074;-79
2023/10/24 03:29:50;;;;;;;41.70;20.13;;;13.20;99.90;;;;;;5123075;27;20526;-80
2023/10/24 03:32:15;;;;;;;48.67;20.23;;;13.20;99.90;;;;;;5111666;28;20074;-81
2023/10/24 03:34:41;;;;;;;36.85;18.38;;;13.20;99.90;;;;;;5112327;28;20024;-81
2023/10/24 03:37:07;;;;;;;33.88;15.80;;;13.20;99.90;;;;;;5109973;28;20051;-82
2023/10/24 03:39:33;;;;;;;30.50;15.00;;;13.20;99.90;;;;;;5111575;28;20031;-80
2023/10/24 03:41:59;;;;;;;34.03;15.48;;;13.20;99.90;;;;;;5110133;28;20032;-80
2023/10/24 03:44:24;;;;;;;32.80;15.10;;;13.20;99.90;;;;;;5111091;28;20032;-81
2023/10/24 03:46:50;;;;;;;31.40;14.75;;;13.30;99.90;;;;;;5110077;28;20042;-80
2023/10/24 03:49:16;;;;;;;33.80;15.15;;;13.30;99.90;;;;;;5127862;28;20036;-81
2023/10/24 03:51:44;;;;;;;26.25;15.25;;;13.30;99.90;;;;;;5127624;28;20055;-80
2023/10/24 03:54:09;;;;;;;29.15;15.48;;;13.30;99.90;;;;;;5129554;28;20020;-81
2023/10/24 03:56:35;;;;;;;29.55;15.02;;;13.30;99.90;;;;;;5113300;27;20477;-80
2023/10/24 03:59:02;;;;;;;27.08;14.05;;;13.30;99.90;;;;;;5115890;28;20066;-81
2023/10/24 04:01:28;;;;;;;29.80;14.25;;;13.30;99.90;;;;;;5120244;27;20024;-80
2023/10/24 04:03:54;;;;;;;29.23;13.10;;;13.30;99.90;;;;;;5122335;28;20044;-81
2023/10/24 04:06:19;;;;;;;31.08;13.43;;;13.30;99.90;;;;;;5129591;27;20027;-80
2023/10/24 04:08:45;;;;;;;32.88;12.98;;;13.30;99.90;;;;;;5129325;28;20043;-81
2023/10/24 04:11:15;;;;;;;27.40;12.75;;;13.30;99.90;;;;;;5127855;28;20028;-80
2023/10/24 04:13:42;;;;;;;22.52;12.35;;;13.30;99.90;;;;;;5110850;28;20108;-80
2023/10/24 04:16:08;;;;;;;32.08;12.88;;;13.30;99.90;;;;;;5121758;28;20114;-80
2023/10/24 04:18:34;;;;;;;25.38;13.02;;;13.30;99.90;;;;;;5111779;28;20152;-81
2023/10/24 04:20:59;;;;;;;20.10;13.15;;;13.30;99.90;;;;;;5122462;28;20385;-83
2023/10/24 04:23:25;;;;;;;29.30;16.70;;;13.30;99.90;;;;;;5112227;28;20035;-81
2023/10/24 04:25:51;;;;;;;38.92;20.65;;;13.30;99.90;;;;;;5120222;28;20020;-81
2023/10/24 04:28:17;;;;;;;45.15;21.25;;;13.30;99.90;;;;;;5113231;28;20044;-81
2023/10/24 04:30:42;;;;;;;39.40;21.15;;;13.20;99.90;;;;;;5116074;28;20027;-81
2023/10/24 04:33:08;;;;;;;29.08;16.98;;;13.20;99.90;;;;;;5116886;28;20118;-81
2023/10/24 04:35:47;;;;;;;30.30;14.48;;;13.20;99.90;;;;;;5110942;28;20465;-81
2023/10/24 04:38:13;;;;;;;33.65;15.82;;;13.20;99.90;;;;;;5126071;28;20111;-81
2023/10/24 04:40:39;;;;;;;21.55;12.02;;;13.20;99.90;;;;;;5116873;27;20024;-81
2023/10/24 04:43:06;;;;;;;19.33;10.18;;;13.20;99.90;;;;;;5107848;28;20024;-81
2023/10/24 04:45:32;;;;;;;19.77;9.40;;;13.20;99.90;;;;;;5107624;28;20386;-81
2023/10/24 04:48:02;;;;;;;20.00;9.20;;;13.20;99.90;;;;;;5109784;27;20057;-81
2023/10/24 04:50:28;;;;;;;19.75;8.48;;;13.20;99.90;;;;;;5104254;28;20482;-80
2023/10/24 04:52:54;;;;;;;19.00;9.32;;;13.30;99.90;;;;;;5116727;28;20027;-80
2023/10/24 04:55:21;;;;;;;23.13;11.38;;;13.30;99.90;;;;;;5115515;28;20579;-80
2023/10/24 04:57:47;;;;;;;20.02;11.02;;;13.30;99.90;;;;;;5109957;28;20114;-81
2023/10/24 05:00:16;;;;;;;28.02;10.90;;;13.30;99.90;;;;;;5108732;28;20028;-80
2023/10/24 05:02:43;;;;;;;22.58;9.65;;;13.30;99.90;;;;;;5117073;27;20035;-80
2023/10/24 05:05:09;;;;;;;20.88;9.57;;;13.40;99.90;;;;;;5116642;28;20054;-80
2023/10/24 05:07:36;;;;;;;23.08;10.10;;;13.40;99.90;;;;;;5116313;28;20484;-80
2023/10/24 05:10:02;;;;;;;24.17;9.30;;;13.40;99.90;;;;;;5116204;28;20076;-80
2023/10/24 05:12:28;;;;;;;18.27;9.55;;;13.40;99.90;;;;;;5116812;28;20477;-80
2023/10/24 05:14:53;;;;;;;22.25;9.82;;;13.40;99.90;;;;;;5115920;28;20035;-80
2023/10/24 05:17:19;;;;;;;17.90;9.50;;;13.30;99.90;;;;;;5115164;28;20028;-80
2023/10/24 05:19:45;;;;;;;20.85;9.57;;;13.40;99.90;;;;;;5116473;28;20024;-80
2023/10/24 05:22:11;;;;;;;47.33;19.70;;;13.40;99.90;;;;;;5116041;28;20085;-80
2023/10/24 05:24:38;;;;;;;48.72;17.90;;;13.40;99.90;;;;;;5115058;28;20027;-80
2023/10/24 05:27:07;;;;;;;38.90;17.38;;;13.40;99.90;;;;;;5114948;28;20035;-80
2023/10/24 05:29:36;;;;;;;32.33;14.25;;;13.50;99.90;;;;;;5115826;28;20070;-80
2023/10/24 05:32:02;;;;;;;23.90;10.30;;;13.50;99.90;;;;;;5115987;28;20024;-80
2023/10/24 05:34:29;;;;;;;23.80;10.93;;;13.50;99.90;;;;;;5115931;28;20351;-80
2023/10/24 05:36:55;;;;;;;28.80;10.75;;;13.60;99.90;;;;;;5115777;28;20034;-80
2023/10/24 05:39:24;;;;;;;20.58;10.70;;;13.60;99.90;;;;;;5116089;28;20055;-80
2023/10/24 05:41:50;;;;;;;16.20;9.20;;;13.60;99.90;;;;;;5115998;28;20076;-80
2023/10/24 05:44:16;;;;;;;27.80;9.90;;;13.60;99.90;;;;;;5115649;27;20534;-80
2023/10/24 05:46:42;;;;;;;26.10;9.82;;;13.60;99.90;;;;;;5110383;28;20024;-80
2023/10/24 05:49:08;;;;;;;18.85;8.80;;;13.60;99.90;;;;;;5094049;28;20039;-81
2023/10/24 05:51:33;;;;;;;24.17;8.32;;;13.60;99.90;;;;;;5094676;28;20035;-80
2023/10/24 05:53:59;;;;;;;17.33;7.45;;;13.60;99.90;;;;;;5093748;28;20076;-80
2023/10/24 05:56:26;;;;;;;16.20;8.10;;;13.70;99.90;;;;;;5095348;28;20035;-80
2023/10/24 05:58:52;;;;;;;24.13;8.90;;;13.70;99.90;;;;;;5109800;28;20034;-80
2023/10/24 06:01:18;;;;;;;18.10;6.88;;;13.70;99.90;;;;;;5105130;28;20024;-81
2023/10/24 06:03:45;;;;;;;16.17;7.53;;;13.80;99.90;;;;;;5094862;28;20493;-80
2023/10/24 06:06:11;;;;;;;24.92;7.82;;;13.90;99.90;;;;;;5094749;28;20512;-80
2023/10/24 06:08:38;;;;;;;21.00;8.00;;;13.90;99.90;;;;;;5093692;28;20073;-79
2023/10/24 06:11:04;;;;;;;14.18;7.32;;;13.90;99.90;;;;;;5094970;28;20036;-80
2023/10/24 06:13:31;;;;;;;15.55;5.82;;;14.00;99.90;;;;;;5110607;28;20477;-80
2023/10/24 06:16:09;;;;;;;16.40;6.63;;;14.00;99.90;;;;;;5115366;28;20049;-80
2023/10/24 06:18:35;;;;;;;15.77;6.88;;;14.10;99.90;;;;;;5115681;28;20043;-80
2023/10/24 06:21:05;;;;;;;23.25;6.32;;;14.10;99.90;;;;;;5113584;28;20024;-80
2023/10/24 06:23:32;;;;;;;24.73;6.43;;;14.20;99.90;;;;;;5115080;28;20027;-80
2023/10/24 06:25:57;;;;;;;19.23;8.20;;;14.30;99.90;;;;;;5115365;28;20032;-79
2023/10/24 06:28:24;;;;;;;18.83;7.60;;;14.40;99.90;;;;;;5113429;28;20056;-80
2023/10/24 06:30:58;;;;;;;22.00;6.82;;;14.50;99.90;;;;;;5114880;28;20024;-79
2023/10/24 06:33:25;;;;;;;20.33;7.35;;;14.70;99.90;;;;;;5114875;28;20029;-79
2023/10/24 06:35:51;;;;;;;18.30;8.13;;;14.80;99.90;;;;;;5114657;28;20030;-80
2023/10/24 06:38:17;;;;;;;22.23;8.10;;;14.90;99.90;;;;;;5113550;28;20031;-80
2023/10/24 18:21:57;;;;;;;44.95;14.55;;;20.10;87.20;;;;;;5070541;28;20772;-83
2023/10/24 18:24:23;;;;;;;52.35;16.63;;;19.90;87.60;;;;;;5071058;28;20463;-83
2023/10/24 20:53:54;;;;;;;36.47;9.50;;;19.30;92.10;;;;;;5153618;27;20339;-82
2023/10/24 20:56:19;;;;;;;41.28;14.10;;;19.30;93.00;;;;;;5113431;28;20035;-82
2023/10/24 20:58:45;;;;;;;56.03;10.35;;;19.30;92.50;;;;;;5127508;28;20439;-83
2023/10/24 21:01:15;;;;;;;47.22;11.73;;;19.30;92.40;;;;;;5098772;28;20032;-82
2023/10/24 21:03:41;;;;;;;48.65;10.38;;;19.30;92.60;;;;;;5092965;28;20224;-82
2023/10/24 21:06:06;;;;;;;47.63;10.35;;;19.40;92.20;;;;;;5098146;28;20047;-81
2023/10/24 21:08:32;;;;;;;43.00;12.68;;;19.50;92.10;;;;;;5093078;28;20028;-82
2023/10/24 21:11:00;;;;;;;39.85;10.80;;;19.50;92.20;;;;;;5110900;28;20040;-81
2023/10/24 21:13:26;;;;;;;46.33;10.48;;;19.60;92.50;;;;;;5111289;28;20028;-85
2023/10/24 21:15:58;;;;;;;47.13;10.20;;;19.60;92.10;;;;;;5111023;28;20038;-83
2023/10/24 21:18:25;;;;;;;44.78;11.15;;;19.50;92.70;;;;;;5092592;28;20027;-81
2023/10/24 21:20:51;;;;;;;44.25;11.90;;;19.60;92.20;;;;;;5092897;28;20378;-82
2023/10/24 21:23:17;;;;;;;44.08;10.65;;;19.60;92.00;;;;;;5110401;28;20436;-82
2023/10/24 21:25:43;;;;;;;38.97;10.20;;;19.60;91.70;;;;;;5110991;28;20374;-81
2023/10/24 21:28:08;;;;;;;43.65;11.30;;;19.70;91.40;;;;;;5092773;28;20115;-82
2023/10/24 21:30:39;;;;;;;46.60;12.55;;;19.70;90.60;;;;;;5110186;28;20501;-81
2023/10/24 21:33:06;;;;;;;49.95;10.95;;;19.80;90.00;;;;;;5110850;28;20085;-81
2023/10/24 21:35:40;;;;;;;54.83;10.32;;;20.00;88.90;;;;;;5110671;28;20035;-82
2023/10/24 21:38:06;;;;;;;50.28;11.65;;;20.00;87.30;;;;;;5092387;28;20028;-80
2023/10/24 21:40:33;;;;;;;43.22;10.10;;;20.10;86.80;;;;;;5111088;28;20027;-82
2023/10/24 21:42:59;;;;;;;42.33;9.20;;;20.10;86.60;;;;;;5114532;28;20484;-81
2023/10/24 21:45:26;;;;;;;43.15;9.45;;;20.00;86.30;;;;;;5110493;28;20024;-81
2023/10/24 21:47:52;;;;;;;47.20;8.90;;;20.00;85.30;;;;;;5110668;28;20115;-81
2023/10/24 21:50:18;;;;;;;61.58;9.35;;;20.10;84.20;;;;;;5110241;28;20059;-82
2023/10/24 21:52:46;;;;;;;38.30;10.10;;;20.10;84.50;;;;;;5110025;28;20048;-82
2023/10/24 21:55:13;;;;;;;56.72;9.85;;;20.10;83.80;;;;;;5110823;28;20032;-82
2023/10/24 21:57:39;;;;;;;43.75;10.80;;;20.10;84.70;;;;;;5114368;28;20027;-83
2023/10/24 22:00:15;;;;;;;53.25;11.57;;;20.10;84.10;;;;;;5112127;28;20033;-82
2023/10/24 22:02:42;;;;;;;34.03;10.23;;;20.10;85.00;;;;;;5100731;28;20126;-81
2023/10/24 22:05:08;;;;;;;59.15;14.43;;;20.10;86.50;;;;;;5105899;28;20020;-80
2023/10/24 22:07:34;;;;;;;50.83;11.70;;;20.00;86.50;;;;;;5109140;28;20028;-81
2023/10/24 22:09:59;;;;;;;49.42;13.02;;;20.00;84.30;;;;;;5104858;28;20024;-82
2023/10/24 22:12:26;;;;;;;58.65;13.55;;;20.00;83.90;;;;;;5107207;28;20465;-81
2023/10/24 22:14:51;;;;;;;62.67;11.70;;;20.10;82.60;;;;;;5098737;28;20036;-82
2023/10/24 22:17:18;;;;;;;60.70;8.93;;;20.20;76.10;;;;;;5081152;28;20046;-81
2023/10/24 22:19:44;;;;;;;49.20;8.82;;;;;;;;;;5104358;28;20027;-81
2023/10/24 22:22:10;;;;;;;57.03;9.77;;;21.50;62.90;;;;;;5104051;28;20078;-82
2023/10/24 22:24:36;;;;;;;64.57;12.00;;;;;;;;;;5096664;28;20472;-82
2023/10/24 22:27:02;;;;;;;62.65;9.95;;;21.80;60.90;;;;;;5095976;28;20023;-82
2023/10/24 22:29:28;;;;;;;66.45;12.80;;;22.00;60.40;;;;;;5092549;28;20111;-82
2023/10/24 22:31:54;;;;;;;51.65;10.50;;;;;;;;;;5078048;28;20115;-82
2023/10/24 22:34:20;;;;;;;61.47;9.80;;;;;;;;;;5095918;28;20463;-82
2023/10/24 22:36:47;;;;;;;68.32;9.35;;;;;;;;;;5095957;28;20020;-82
2023/10/24 22:39:13;;;;;;;48.00;8.18;;;;;;;;;;5096210;28;20071;-82
2023/10/24 22:41:39;;;;;;;62.70;8.38;;;;;;;;;;5077534;28;20455;-82
2023/10/24 22:44:06;;;;;;;48.40;7.07;;;;;;;;;;5077546;28;20032;-82
2023/10/24 22:46:32;;;;;;;46.88;8.50;;;;;;;;;;5096196;28;20029;-82
2023/10/24 22:48:57;;;;;;;50.35;7.15;;;21.80;65.60;;;;;;5095282;28;20474;-82
2023/10/24 22:51:23;;;;;;;43.42;6.95;;;21.50;67.80;;;;;;5077812;28;20028;-82
2023/10/24 22:53:49;;;;;;;55.55;8.80;;;21.40;68.90;;;;;;5109201;28;20056;-82
2023/10/24 22:56:15;;;;;;;41.80;6.93;;;21.20;68.80;;;;;;5109715;28;20378;-82
2023/10/24 22:58:40;;;;;;;53.17;8.00;;;21.10;68.40;;;;;;5082747;28;20443;-82
2023/10/24 23:01:10;;;;;;;70.57;8.60;;;21.10;68.30;;;;;;5085871;28;20433;-82
2023/10/24 23:03:36;;;;;;;56.80;9.73;;;21.10;67.90;;;;;;5078851;28;20028;-82
2023/10/24 23:06:03;;;;;;;71.57;12.25;;;21.20;65.00;;;;;;5111256;28;20024;-82
2023/10/24 23:08:29;;;;;;;76.13;9.48;;;21.40;63.20;;;;;;5088235;28;20454;-81
2023/10/24 23:11:04;;;;;;;76.80;11.68;;;21.50;61.50;;;;;;5103026;28;20028;-82
2023/10/24 23:13:30;;;;;;;66.25;11.40;;;21.80;59.80;;;;;;5097385;28;20433;-81
2023/10/24 23:15:57;;;;;;;70.05;11.45;;;21.90;59.70;;;;;;5104672;28;20024;-82
2023/10/24 23:18:22;;;;;;;69.18;12.82;;;22.00;58.50;;;;;;5083285;28;20489;-81
2023/10/24 23:20:48;;;;;;;74.80;10.70;;;22.10;58.30;;;;;;5106680;28;20115;-81
2023/10/24 23:23:14;;;;;;;76.57;10.73;;;22.20;57.70;;;;;;5107454;28;20032;-82
2023/10/24 23:25:41;;;;;;;61.65;10.55;;;22.20;57.50;;;;;;5076931;28;20056;-81
2023/10/24 23:28:06;;;;;;;60.85;13.35;;;22.30;57.50;;;;;;5100495;28;20034;-81
2023/10/24 23:30:32;;;;;;;72.20;12.52;;;22.30;57.20;;;;;;5094538;28;20020;-81
2023/10/24 23:32:58;;;;;;;68.88;11.05;;;22.30;56.80;;;;;;5094987;28;20040;-82
2023/10/24 23:35:24;;;;;;;66.70;9.57;;;22.30;56.40;;;;;;5095273;28;20378;-81
2023/10/24 23:37:50;;;;;;;67.50;11.95;;;22.40;57.20;;;;;;5094727;28;20055;-81
2023/10/24 23:40:16;;;;;;;54.78;10.55;;;22.40;57.30;;;;;;5076688;28;20055;-81
2023/10/24 23:42:42;;;;;;;66.20;12.05;;;22.40;57.70;;;;;;5094920;28;20054;-82
2023/10/24 23:45:08;;;;;;;65.53;10.55;;;22.30;59.50;;;;;;5098678;28;20036;-82
2023/10/24 23:47:35;;;;;;;57.70;9.63;;;22.20;60.90;;;;;;5112424;28;20048;-82
2023/10/24 23:50:01;;;;;;;57.92;9.60;;;22.20;59.20;;;;;;5098072;28;20088;-82
2023/10/24 23:52:27;;;;;;;61.53;9.63;;;22.20;59.10;;;;;;5072874;28;20059;-81
2023/10/24 23:54:53;;;;;;;61.17;9.05;;;22.20;59.30;;;;;;5080347;28;20414;-82
2023/10/24 23:57:19;;;;;;;54.72;10.93;;;22.20;59.40;;;;;;5085654;28;20087;-81
2023/10/24 23:59:44;;;;;;;61.30;10.07;;;22.10;60.00;;;;;;5084288;28;20043;-81
